createdAt,value
2019-05-26T00:00:46.172Z,57.68
2019-05-26T00:03:14.979Z,58.07
2019-05-26T00:05:43.688Z,58.27
2019-05-26T00:08:12.437Z,58.59
2019-05-26T00:10:41.148Z,59.21
2019-05-26T00:13:09.861Z,59.58
2019-05-26T00:15:38.571Z,59.96
2019-05-26T00:18:07.287Z,60.18
2019-05-26T00:20:36.022Z,60.24
2019-05-26T00:23:04.728Z,59.54
2019-05-26T00:25:33.435Z,59.60
2019-05-26T00:28:02.149Z,59.52
2019-05-26T00:30:30.851Z,59.45
2019-05-26T00:32:59.600Z,59.80
2019-05-26T00:35:28.308Z,60.15
2019-05-26T00:37:57.039Z,60.19
2019-05-26T00:40:25.750Z,60.34
2019-05-26T00:42:54.458Z,59.86
2019-05-26T00:45:23.614Z,59.58
2019-05-26T00:47:52.319Z,59.68
2019-05-26T00:50:21.127Z,59.88
2019-05-26T00:52:49.851Z,60.20
2019-05-26T00:55:18.660Z,60.04
2019-05-26T00:57:47.454Z,59.75
2019-05-26T01:00:19.072Z,59.32
2019-05-26T01:02:47.782Z,58.88
2019-05-26T01:05:16.590Z,58.50
2019-05-26T01:07:45.294Z,58.18
2019-05-26T01:10:14.127Z,57.93
2019-05-26T01:12:42.880Z,58.50
2019-05-26T01:15:11.695Z,58.69
2019-05-26T01:17:40.401Z,59.34
2019-05-26T01:20:10.807Z,59.75
2019-05-26T01:22:39.512Z,59.93
2019-05-26T01:25:08.522Z,60.29
2019-05-26T01:27:37.565Z,59.98
2019-05-26T01:30:08.172Z,60.33
2019-05-26T01:32:36.956Z,60.50
2019-05-26T01:35:07.101Z,60.38
2019-05-26T01:37:37.321Z,60.70
2019-05-26T01:40:07.882Z,60.56
2019-05-26T01:42:36.651Z,60.35
2019-05-26T01:45:07.328Z,60.43
2019-05-26T01:47:36.033Z,60.17
2019-05-26T01:50:06.239Z,60.18
2019-05-26T01:52:34.955Z,59.84
2019-05-26T01:55:04.597Z,59.64
2019-05-26T01:57:33.297Z,59.85
2019-05-26T02:00:02.005Z,59.52
2019-05-26T02:02:30.724Z,59.67
2019-05-26T02:04:59.428Z,59.63
2019-05-26T02:07:28.176Z,60.09
2019-05-26T02:09:56.887Z,60.31
2019-05-26T02:12:25.590Z,60.70
2019-05-26T02:14:54.343Z,60.67
2019-05-26T02:17:23.051Z,60.60
2019-05-26T02:19:51.757Z,61.20
2019-05-26T02:22:20.524Z,61.05
2019-05-26T02:24:49.231Z,60.94
2019-05-26T02:27:17.942Z,61.33
2019-05-26T02:29:46.659Z,61.60
2019-05-26T02:32:15.366Z,61.86
2019-05-26T02:34:44.114Z,62.12
2019-05-26T02:37:12.828Z,62.06
2019-05-26T02:39:41.526Z,62.16
2019-05-26T02:42:10.436Z,62.07
2019-05-26T02:44:39.148Z,62.11
2019-05-26T02:47:07.901Z,62.62
2019-05-26T02:49:36.707Z,62.56
2019-05-26T02:52:05.511Z,62.29
2019-05-26T02:54:34.231Z,62.32
2019-05-26T02:57:02.939Z,62.08
2019-05-26T02:59:31.712Z,61.86
2019-05-26T03:02:03.993Z,61.84
2019-05-26T03:04:30.858Z,61.44
2019-05-26T03:07:01.435Z,61.20
2019-05-26T03:09:30.945Z,61.41
2019-05-26T03:12:02.189Z,61.22
2019-05-26T03:14:33.561Z,60.86
2019-05-26T03:17:03.177Z,60.71
2019-05-26T03:19:35.418Z,60.70
2019-05-26T03:22:05.425Z,60.58
2019-05-26T03:24:34.265Z,59.91
2019-05-26T03:27:02.963Z,58.17
2019-05-26T03:29:31.674Z,56.76
2019-05-26T03:32:00.558Z,54.82
2019-05-26T03:34:29.250Z,52.78
2019-05-26T03:36:57.958Z,52.65
2019-05-26T03:39:43.376Z,51.91
2019-05-26T03:41:57.096Z,51.28
2019-05-26T03:44:25.837Z,51.75
2019-05-26T03:46:54.606Z,52.38
2019-05-26T03:49:23.305Z,53.13
2019-05-26T03:51:52.060Z,54.29
2019-05-26T03:54:20.772Z,54.34
2019-05-26T03:56:49.497Z,54.10
2019-05-26T03:59:18.183Z,53.66
2019-05-26T04:01:46.893Z,53.21
2019-05-26T04:04:15.637Z,52.75
2019-05-26T04:06:44.338Z,51.35
2019-05-26T04:09:13.049Z,50.22
2019-05-26T04:11:41.823Z,49.40
2019-05-26T04:14:11.127Z,48.58
2019-05-26T04:16:39.843Z,46.80
2019-05-26T04:19:08.539Z,44.51
2019-05-26T04:21:37.240Z,43.51
2019-05-26T04:24:06.256Z,41.97
2019-05-26T04:26:34.939Z,41.26
2019-05-26T04:29:03.647Z,41.40
2019-05-26T04:31:32.358Z,40.96
2019-05-26T04:34:01.060Z,40.18
2019-05-26T04:36:29.831Z,38.85
2019-05-26T04:38:58.540Z,37.33
2019-05-26T04:41:27.244Z,36.27
2019-05-26T04:43:55.991Z,35.51
2019-05-26T04:46:24.697Z,35.68
2019-05-26T04:48:53.413Z,35.45
2019-05-26T04:51:22.108Z,35.96
2019-05-26T04:53:50.805Z,34.82
2019-05-26T04:56:19.551Z,36.35
2019-05-26T04:58:48.261Z,40.13
2019-05-26T05:01:17.029Z,42.03
2019-05-26T05:03:45.785Z,40.05
2019-05-26T05:06:14.497Z,42.34
2019-05-26T05:08:43.204Z,43.36
2019-05-26T05:11:11.936Z,43.53
2019-05-26T05:13:40.723Z,42.85
2019-05-26T05:16:09.494Z,42.49
2019-05-26T05:18:38.200Z,41.28
2019-05-26T05:21:06.906Z,42.02
2019-05-26T05:23:35.682Z,40.70
2019-05-26T05:26:04.406Z,38.17
2019-05-26T05:28:33.174Z,36.20
2019-05-26T05:31:01.874Z,35.34
2019-05-26T05:33:30.574Z,34.68
2019-05-26T05:35:59.334Z,35.02
2019-05-26T05:38:28.110Z,35.30
2019-05-26T05:41:00.010Z,37.65
2019-05-26T05:43:27.247Z,38.42
2019-05-26T05:45:55.958Z,38.06
2019-05-26T05:48:24.705Z,38.09
2019-05-26T05:50:53.472Z,39.14
2019-05-26T05:53:22.195Z,39.24
2019-05-26T05:55:50.906Z,37.31
2019-05-26T05:58:19.612Z,36.79
2019-05-26T06:00:48.352Z,35.28
2019-05-26T06:03:18.819Z,34.55
2019-05-26T06:05:47.648Z,34.13
2019-05-26T06:08:16.352Z,37.93
2019-05-26T06:10:45.055Z,39.39
2019-05-26T06:13:13.801Z,39.79
2019-05-26T06:15:42.503Z,39.63
2019-05-26T06:18:11.207Z,41.05
2019-05-26T06:20:39.923Z,41.37
2019-05-26T06:23:08.630Z,41.69
2019-05-26T06:25:37.798Z,41.05
2019-05-26T06:28:06.518Z,41.04
2019-05-26T06:30:35.223Z,41.22
2019-05-26T06:33:03.931Z,41.33
2019-05-26T06:35:33.157Z,40.82
2019-05-26T06:38:01.975Z,40.74
2019-05-26T06:42:37.023Z,40.64
2019-05-26T06:45:07.441Z,40.45
2019-05-26T06:47:36.116Z,40.92
2019-05-26T06:50:06.757Z,40.12
2019-05-26T06:52:35.470Z,39.02
2019-05-26T06:55:05.904Z,38.46
2019-05-26T06:57:34.636Z,38.09
2019-05-26T07:00:04.539Z,38.42
2019-05-26T07:02:33.306Z,39.04
2019-05-26T07:05:01.988Z,38.35
2019-05-26T07:07:30.698Z,39.00
2019-05-26T07:09:59.402Z,39.88
2019-05-26T07:12:28.113Z,38.65
2019-05-26T07:14:57.163Z,38.83
2019-05-26T07:17:25.863Z,39.21
2019-05-26T07:19:54.572Z,37.45
2019-05-26T07:22:23.333Z,38.25
2019-05-26T07:24:52.043Z,38.62
2019-05-26T07:27:20.754Z,40.14
2019-05-26T07:29:49.466Z,39.48
2019-05-26T07:32:18.229Z,38.89
2019-05-26T07:34:47.003Z,40.35
2019-05-26T07:37:15.696Z,38.97
2019-05-26T07:39:44.423Z,38.26
2019-05-26T07:42:13.119Z,38.58
2019-05-26T07:44:41.823Z,38.33
2019-05-26T07:47:10.569Z,37.65
2019-05-26T07:49:39.274Z,37.07
2019-05-26T07:52:07.989Z,36.05
2019-05-26T07:54:36.702Z,35.30
2019-05-26T07:57:05.530Z,35.30
2019-05-26T07:59:34.075Z,35.61
2019-05-26T08:02:02.777Z,36.64
2019-05-26T08:04:31.480Z,37.24
2019-05-26T08:07:00.299Z,36.17
2019-05-26T08:09:29.014Z,36.60
2019-05-26T08:11:57.738Z,36.05
2019-05-26T08:14:26.460Z,36.05
2019-05-26T08:16:55.173Z,35.13
2019-05-26T08:19:23.919Z,33.37
2019-05-26T08:21:54.662Z,33.61
2019-05-26T08:24:23.051Z,33.64
2019-05-26T08:26:52.075Z,33.05
2019-05-26T08:29:20.783Z,32.60
2019-05-26T08:31:49.546Z,34.52
2019-05-26T08:34:18.255Z,34.02
2019-05-26T08:36:46.962Z,34.35
2019-05-26T08:39:15.712Z,34.00
2019-05-26T08:41:44.422Z,33.70
2019-05-26T08:44:13.128Z,33.62
2019-05-26T08:46:41.852Z,33.62
2019-05-26T08:49:10.859Z,34.23
2019-05-26T08:51:39.596Z,33.81
2019-05-26T08:54:08.303Z,33.95
2019-05-26T08:56:37.015Z,34.26
2019-05-26T08:59:05.822Z,33.87
2019-05-26T09:01:34.570Z,34.06
2019-05-26T09:04:03.269Z,34.09
2019-05-26T09:06:31.975Z,33.82
2019-05-26T09:09:00.679Z,33.98
2019-05-26T09:11:29.424Z,33.71
2019-05-26T09:13:58.148Z,34.10
2019-05-26T09:16:26.854Z,33.74
2019-05-26T09:18:55.610Z,34.41
2019-05-26T09:21:24.307Z,34.50
2019-05-26T09:23:53.017Z,34.45
2019-05-26T09:26:21.733Z,35.27
2019-05-26T09:28:50.434Z,35.27
2019-05-26T09:31:19.178Z,35.64
2019-05-26T09:33:47.910Z,35.64
2019-05-26T09:36:16.690Z,35.64
2019-05-26T09:38:45.428Z,35.10
2019-05-26T09:41:14.120Z,35.10
2019-05-26T09:43:42.879Z,33.54
2019-05-26T09:46:11.584Z,34.61
2019-05-26T09:48:40.288Z,35.62
2019-05-26T09:51:09.006Z,34.92
2019-05-26T09:53:37.722Z,34.92
2019-05-26T09:56:06.610Z,34.51
2019-05-26T09:58:35.321Z,33.77
2019-05-26T10:01:04.044Z,34.79
2019-05-26T10:03:32.777Z,33.11
2019-05-26T10:06:01.479Z,33.88
2019-05-26T10:08:30.219Z,33.94
2019-05-26T10:10:58.927Z,33.83
2019-05-26T10:13:31.807Z,33.42
2019-05-26T10:15:58.092Z,33.19
2019-05-26T10:18:26.809Z,33.00
2019-05-26T10:20:55.630Z,33.19
2019-05-26T10:23:24.326Z,32.61
2019-05-26T10:25:53.039Z,32.34
2019-05-26T10:28:21.753Z,32.65
2019-05-26T10:30:50.454Z,31.93
2019-05-26T10:33:19.210Z,32.82
2019-05-26T10:35:47.925Z,32.55
2019-05-26T10:38:16.618Z,31.80
2019-05-26T10:40:45.329Z,31.73
2019-05-26T10:43:14.042Z,31.84
2019-05-26T10:45:42.740Z,33.95
2019-05-26T10:48:11.458Z,34.64
2019-05-26T10:50:40.157Z,36.21
2019-05-26T10:53:08.872Z,34.97
2019-05-26T10:55:37.596Z,34.69
2019-05-26T10:58:06.308Z,35.31
2019-05-26T11:00:35.019Z,35.31
2019-05-26T11:03:03.771Z,34.50
2019-05-26T11:05:32.473Z,35.24
2019-05-26T11:08:01.182Z,35.68
2019-05-26T11:10:29.933Z,35.68
2019-05-26T11:12:58.625Z,34.84
2019-05-26T11:15:27.327Z,34.43
2019-05-26T11:17:56.037Z,35.15
2019-05-26T11:20:24.745Z,34.28
2019-05-26T11:22:53.496Z,34.27
2019-05-26T11:25:22.198Z,33.71
2019-05-26T11:27:50.904Z,33.52
2019-05-26T11:30:20.853Z,33.10
2019-05-26T11:32:49.571Z,33.99
2019-05-26T11:35:21.545Z,33.86
2019-05-26T11:37:50.252Z,33.70
2019-05-26T11:40:19.058Z,32.78
2019-05-26T11:42:47.804Z,31.98
2019-05-26T11:45:16.707Z,31.64
2019-05-26T11:47:45.415Z,31.81
2019-05-26T11:50:15.573Z,31.63
2019-05-26T11:52:44.275Z,32.09
2019-05-26T11:55:14.379Z,31.59
2019-05-26T11:57:43.096Z,31.61
2019-05-26T12:00:15.975Z,32.28
2019-05-26T12:02:46.521Z,30.94
2019-05-26T12:05:17.749Z,31.93
2019-05-26T12:07:45.884Z,31.56
2019-05-26T12:10:15.091Z,31.72
2019-05-26T12:12:43.806Z,31.51
2019-05-26T12:15:13.752Z,31.53
2019-05-26T12:17:42.460Z,31.59
2019-05-26T12:20:11.772Z,30.87
2019-05-26T12:22:40.532Z,31.05
2019-05-26T12:25:09.735Z,30.97
2019-05-26T12:27:38.439Z,30.00
2019-05-26T12:30:09.251Z,29.89
2019-05-26T12:32:37.961Z,30.18
2019-05-26T12:35:08.981Z,30.64
2019-05-26T12:37:38.292Z,30.37
2019-05-26T12:40:07.895Z,29.86
2019-05-26T12:42:36.645Z,30.04
2019-05-26T12:45:09.300Z,30.10
2019-05-26T12:47:38.108Z,29.51
2019-05-26T12:50:07.617Z,29.73
2019-05-26T12:52:36.425Z,30.40
2019-05-26T12:55:09.308Z,29.55
2019-05-26T12:57:37.895Z,29.05
2019-05-26T13:00:11.114Z,29.61
2019-05-26T13:02:39.822Z,29.75
2019-05-26T13:05:09.744Z,29.95
2019-05-26T13:07:38.492Z,30.92
2019-05-26T13:10:09.401Z,30.34
2019-05-26T13:12:38.177Z,30.33
2019-05-26T13:15:09.556Z,31.44
2019-05-26T13:17:38.266Z,30.50
2019-05-26T13:20:07.817Z,30.40
2019-05-26T13:22:36.674Z,30.84
2019-05-26T13:25:07.812Z,31.96
2019-05-26T13:27:36.570Z,32.24
2019-05-26T13:30:16.789Z,32.33
2019-05-26T13:32:45.543Z,32.66
2019-05-26T13:35:14.649Z,32.49
2019-05-26T13:37:43.347Z,33.10
2019-05-26T13:40:13.262Z,33.29
2019-05-26T13:42:41.974Z,33.21
2019-05-26T13:45:21.983Z,32.86
2019-05-26T13:47:42.343Z,33.33
2019-05-26T13:50:12.957Z,33.95
2019-05-26T13:52:41.670Z,33.78
2019-05-26T13:55:10.675Z,33.82
2019-05-26T13:57:39.442Z,33.83
2019-05-26T14:00:10.889Z,33.47
2019-05-26T14:02:40.033Z,33.89
2019-05-26T14:05:09.045Z,33.91
2019-05-26T14:07:37.750Z,35.27
2019-05-26T14:10:08.618Z,35.63
2019-05-26T14:12:37.335Z,35.09
2019-05-26T14:15:09.676Z,35.03
2019-05-26T14:17:39.937Z,35.61
2019-05-26T14:20:10.174Z,35.89
2019-05-26T14:22:38.993Z,35.74
2019-05-26T14:25:08.029Z,35.94
2019-05-26T14:27:36.863Z,35.83
2019-05-26T14:30:10.062Z,36.63
2019-05-26T14:32:38.759Z,36.23
2019-05-26T14:35:08.002Z,36.91
2019-05-26T14:37:36.722Z,37.09
2019-05-26T14:40:08.078Z,37.24
2019-05-26T14:42:36.805Z,36.78
2019-05-26T14:45:09.068Z,36.66
2019-05-26T14:47:37.831Z,36.23
2019-05-26T14:50:10.531Z,36.50
2019-05-26T14:52:39.438Z,37.07
2019-05-26T14:55:08.743Z,37.13
2019-05-26T14:57:37.451Z,37.53
2019-05-26T15:00:08.459Z,37.84
2019-05-26T15:02:37.302Z,38.36
2019-05-26T15:05:08.204Z,38.52
2019-05-26T15:07:36.955Z,38.82
2019-05-26T15:10:09.276Z,38.51
2019-05-26T15:12:37.989Z,38.97
2019-05-26T15:15:07.895Z,39.07
2019-05-26T15:17:36.608Z,39.14
2019-05-26T15:20:07.028Z,39.05
2019-05-26T15:22:36.045Z,38.88
2019-05-26T15:25:07.259Z,38.64
2019-05-26T15:27:36.370Z,39.09
2019-05-26T15:30:07.045Z,39.31
2019-05-26T15:32:35.799Z,39.55
2019-05-26T15:35:06.615Z,39.28
2019-05-26T15:37:35.322Z,39.61
2019-05-26T15:40:10.325Z,40.46
2019-05-26T15:42:39.037Z,40.46
2019-05-26T15:45:09.648Z,40.57
2019-05-26T15:47:38.367Z,40.77
2019-05-26T15:50:07.873Z,40.50
2019-05-26T15:52:36.738Z,40.16
2019-05-26T15:55:06.846Z,40.34
2019-05-26T15:57:35.550Z,40.30
2019-05-26T16:00:06.372Z,39.90
2019-05-26T16:02:35.073Z,39.53
2019-05-26T16:05:04.989Z,38.95
2019-05-26T16:07:33.797Z,39.54
2019-05-26T16:10:02.506Z,39.21
2019-05-26T16:12:31.252Z,40.23
2019-05-26T16:14:59.963Z,40.77
2019-05-26T16:17:28.663Z,40.19
2019-05-26T16:19:57.366Z,40.18
2019-05-26T16:22:26.068Z,39.39
2019-05-26T16:24:54.825Z,38.75
2019-05-26T16:32:33.898Z,40.24
2019-05-26T16:35:02.593Z,40.92
2019-05-26T16:37:31.793Z,41.54
2019-05-26T16:40:05.841Z,41.71
2019-05-26T16:42:34.553Z,41.54
2019-05-26T16:45:03.992Z,41.62
2019-05-26T16:47:32.687Z,41.73
2019-05-26T16:50:01.695Z,42.38
2019-05-26T16:52:32.379Z,42.62
2019-05-26T16:55:01.081Z,43.28
2019-05-26T16:57:29.830Z,43.77
2019-05-26T16:59:58.548Z,43.81
2019-05-26T17:02:27.261Z,43.79
2019-05-26T17:04:55.990Z,43.67
2019-05-26T17:07:24.705Z,43.85
2019-05-26T17:09:53.468Z,44.32
2019-05-26T17:12:22.178Z,44.08
2019-05-26T17:14:50.879Z,44.21
2019-05-26T17:17:19.598Z,44.40
2019-05-26T17:19:48.311Z,44.75
2019-05-26T17:22:17.087Z,44.88
2019-05-26T17:24:47.298Z,45.11
2019-05-26T17:27:16.015Z,45.36
2019-05-26T17:29:44.787Z,45.27
2019-05-26T17:32:13.506Z,45.16
2019-05-26T17:34:42.226Z,45.38
2019-05-26T17:37:11.011Z,44.95
2019-05-26T17:39:39.930Z,44.95
2019-05-26T17:42:08.647Z,45.15
2019-05-26T17:44:37.381Z,45.34
2019-05-26T17:47:06.087Z,45.93
2019-05-26T17:49:34.857Z,46.27
2019-05-26T17:52:03.569Z,46.17
2019-05-26T17:54:32.669Z,46.38
2019-05-26T17:57:01.526Z,46.42
2019-05-26T17:59:30.234Z,46.63
2019-05-26T18:01:58.956Z,46.63
2019-05-26T18:04:27.665Z,46.57
2019-05-26T18:06:56.442Z,46.60
2019-05-26T18:09:25.199Z,46.71
2019-05-26T18:11:53.904Z,46.85
2019-05-26T18:14:22.729Z,46.76
2019-05-26T18:16:51.454Z,46.79
2019-05-26T18:19:20.159Z,46.98
2019-05-26T18:21:49.437Z,47.12
2019-05-26T18:24:18.164Z,47.13
2019-05-26T18:26:47.388Z,47.22
2019-05-26T18:29:16.110Z,47.25
2019-05-26T18:31:44.994Z,47.31
2019-05-26T18:34:13.805Z,47.38
2019-05-26T18:36:42.565Z,47.38
2019-05-26T18:39:11.277Z,47.35
2019-05-26T18:41:40.007Z,47.43
2019-05-26T18:44:08.727Z,47.50
2019-05-26T18:46:37.507Z,47.56
2019-05-26T18:49:06.234Z,47.58
2019-05-26T18:51:34.941Z,47.54
2019-05-26T18:54:03.684Z,48.89
2019-05-26T18:56:32.403Z,49.60
2019-05-26T18:59:01.126Z,50.12
2019-05-26T19:01:29.845Z,50.39
2019-05-26T19:03:58.541Z,50.45
2019-05-26T19:06:27.289Z,50.26
2019-05-26T19:08:55.997Z,50.64
2019-05-26T19:11:24.707Z,50.90
2019-05-26T19:13:53.466Z,50.91
2019-05-26T19:16:22.256Z,50.87
2019-05-26T19:18:50.963Z,50.96
2019-05-26T19:21:19.681Z,51.63
2019-05-26T19:23:48.380Z,52.38
2019-05-26T19:26:17.147Z,52.45
2019-05-26T19:28:45.852Z,52.48
2019-05-26T19:31:14.562Z,52.84
2019-05-26T19:33:43.278Z,53.34
2019-05-26T19:36:11.978Z,53.01
2019-05-26T19:38:40.724Z,53.18
2019-05-26T19:41:09.432Z,53.50
2019-05-26T19:43:38.146Z,53.83
2019-05-26T19:46:07.303Z,53.81
2019-05-26T19:48:37.287Z,54.02
2019-05-26T19:51:06.343Z,54.04
2019-05-26T19:53:35.048Z,54.10
2019-05-26T19:56:03.853Z,54.12
2019-05-26T19:58:32.571Z,54.67
2019-05-26T20:01:01.890Z,55.05
2019-05-26T20:03:30.629Z,55.20
2019-05-26T20:05:59.334Z,55.64
2019-05-26T20:08:28.034Z,56.07
2019-05-26T20:10:56.748Z,56.24
2019-05-26T20:13:25.453Z,56.81
2019-05-26T20:15:57.192Z,57.38
2019-05-26T20:18:25.904Z,57.94
2019-05-26T20:20:54.613Z,58.29
2019-05-26T20:23:23.329Z,58.71
2019-05-26T20:25:52.031Z,59.13
2019-05-26T20:28:23.306Z,59.32
2019-05-26T20:30:52.032Z,59.18
2019-05-26T20:33:20.739Z,59.29
2019-05-26T20:35:49.449Z,59.52
2019-05-26T20:38:18.255Z,60.01
2019-05-26T20:40:47.413Z,59.87
2019-05-26T20:43:16.122Z,60.12
2019-05-26T20:45:44.831Z,60.36
2019-05-26T20:48:13.544Z,60.21
2019-05-26T20:50:42.257Z,60.55
2019-05-26T20:53:11.018Z,60.59
2019-05-26T20:55:39.728Z,60.46
2019-05-26T20:58:08.436Z,60.37
2019-05-26T21:00:37.488Z,60.39
2019-05-26T21:03:06.387Z,60.55
2019-05-26T21:05:35.115Z,60.71
2019-05-26T21:08:03.821Z,60.68
2019-05-26T21:10:32.642Z,60.71
2019-05-26T21:13:01.354Z,60.86
2019-05-26T21:15:30.061Z,60.95
2019-05-26T21:17:59.029Z,60.91
2019-05-26T21:20:27.741Z,60.68
2019-05-26T21:22:56.460Z,60.66
2019-05-26T21:25:25.230Z,61.09
2019-05-26T21:27:54.026Z,61.53
2019-05-26T21:30:22.738Z,61.92
2019-05-26T21:32:51.463Z,62.17
2019-05-26T21:35:20.166Z,62.54
2019-05-26T21:37:48.873Z,62.39
2019-05-26T21:40:17.821Z,62.48
2019-05-26T21:42:46.533Z,62.61
2019-05-26T21:45:15.364Z,62.61
2019-05-26T21:47:44.094Z,62.58
2019-05-26T21:50:13.363Z,62.63
2019-05-26T21:52:42.078Z,62.84
2019-05-26T21:55:12.398Z,63.28
2019-05-26T21:57:41.101Z,63.54
2019-05-26T22:00:12.104Z,63.74
2019-05-26T22:02:40.861Z,64.06
2019-05-26T22:05:10.561Z,64.37
2019-05-26T22:07:39.414Z,64.50
2019-05-26T22:10:08.234Z,64.75
2019-05-26T22:12:36.941Z,64.65
2019-05-26T22:15:07.612Z,64.71
2019-05-26T22:17:36.322Z,64.96
2019-05-26T22:20:07.134Z,65.28
2019-05-26T22:22:35.961Z,65.18
2019-05-26T22:25:06.571Z,64.95
2019-05-26T22:27:35.281Z,64.70
2019-05-26T22:30:05.404Z,64.41
2019-05-26T22:32:34.118Z,64.26
2019-05-26T22:35:02.872Z,64.54
2019-05-26T22:37:31.583Z,64.80
2019-05-26T22:40:00.312Z,65.02
2019-05-26T22:42:29.017Z,64.98
2019-05-26T22:44:57.730Z,64.75
2019-05-26T22:47:26.495Z,64.71
2019-05-26T22:49:56.778Z,64.19
2019-05-26T22:52:25.487Z,64.00
2019-05-26T22:54:55.116Z,64.32
2019-05-26T22:57:23.815Z,64.42
2019-05-26T22:59:52.551Z,64.23
2019-05-26T23:02:21.270Z,64.02
2019-05-26T23:04:49.973Z,63.86
2019-05-26T23:07:18.726Z,63.70
2019-05-26T23:09:47.435Z,63.93
2019-05-26T23:12:16.139Z,64.18
2019-05-26T23:14:44.901Z,64.72
2019-05-26T23:17:13.600Z,64.90
2019-05-26T23:19:42.298Z,65.32
2019-05-26T23:22:11.013Z,65.34
2019-05-26T23:24:39.713Z,65.66
2019-05-26T23:27:08.459Z,65.31
2019-05-26T23:29:37.160Z,65.14
2019-05-26T23:32:05.859Z,64.91
2019-05-26T23:34:34.576Z,64.93
2019-05-26T23:37:03.293Z,64.61
2019-05-26T23:39:32.026Z,64.73
2019-05-26T23:42:00.728Z,65.00
2019-05-26T23:44:29.431Z,64.86
2019-05-26T23:46:58.134Z,65.30
2019-05-26T23:49:26.837Z,65.33
2019-05-26T23:51:55.584Z,65.52
2019-05-26T23:54:24.291Z,65.90
2019-05-26T23:56:53.001Z,66.21
2019-05-26T23:59:21.751Z,67.07
